Terminal Aerodrome Forecast
Issued by NWS Topeka, KS

Home | Current Version | Previous Version | Graphics & Text | Print | Product List | Glossary On
Versions: 1 2 3 4 5 6 7 8 9 10 11 12 13 14
374
FTUS43 KTOP 052331
TAFTOP
TAF
KTOP 052331Z 0600/0624 15008KT P6SM SKC
     FM060500 21004KT P6SM BKN080
     FM060800 32013G22KT P6SM SCT030 BKN080
     FM061100 32012G18KT P6SM SKC=

USA.gov is the U.S. government's official web portal to all federal, state and local government web resources and services.